Time;durP1;ratioP1;P1;durP2;ratioP2;P2;SDS_P1;SDS_P2;PMS_P1;PMS_P2;Temp;Humidity;BMP_temperature;BMP_pressure;BME280_temperature;BME280_humidity;BME280_pressure;Samples;Min_cycle;Max_cycle;Signal;HPM_P1;HPM_P2
2023/06/15 00:01:52;;;;;;;2.63;1.80;;;17.20;97.40;;;;;;4185393;28;20043;-86
2023/06/15 00:03:52;;;;;;;5.78;2.08;;;17.20;97.50;;;;;;4182622;28;20109;-87
2023/06/15 00:05:53;;;;;;;13.40;2.60;;;17.10;97.60;;;;;;4185056;28;20120;-86
2023/06/15 00:07:54;;;;;;;5.45;2.50;;;17.10;97.70;;;;;;4166875;28;20407;-86
2023/06/15 00:09:55;;;;;;;3.65;2.05;;;17.10;97.90;;;;;;4166560;28;20049;-87
2023/06/15 00:11:56;;;;;;;6.57;2.10;;;17.00;97.90;;;;;;4166548;28;20513;-87
2023/06/15 00:13:57;;;;;;;4.32;2.03;;;17.00;98.00;;;;;;4183227;28;20045;-87
2023/06/15 00:16:02;;;;;;;3.65;2.30;;;17.00;98.10;;;;;;4183423;28;20779;-87
2023/06/15 00:18:03;;;;;;;6.63;2.25;;;17.00;98.20;;;;;;4182442;28;20045;-88
2023/06/15 00:20:12;;;;;;;4.15;2.53;;;16.90;98.20;;;;;;4165646;28;20871;-86
2023/06/15 00:22:15;;;;;;;2.75;1.80;;;16.90;98.20;;;;;;4181764;28;20108;-86
2023/06/15 00:24:15;;;;;;;5.35;2.40;;;16.90;98.30;;;;;;4182587;28;20071;-87
2023/06/15 00:26:18;;;;;;;4.97;1.92;;;16.90;98.30;;;;;;4182406;28;20084;-86
2023/06/15 00:28:20;;;;;;;5.35;2.35;;;16.50;98.40;;;;;;4165818;28;20932;-87
2023/06/15 00:30:20;;;;;;;3.70;2.13;;;16.80;98.60;;;;;;4181987;28;20087;-86
2023/06/15 00:32:22;;;;;;;4.60;1.90;;;16.80;98.60;;;;;;4181803;28;20524;-86
2023/06/15 00:34:23;;;;;;;5.97;2.03;;;16.70;98.80;;;;;;4182086;28;20131;-86
2023/06/15 00:36:24;;;;;;;7.05;2.45;;;16.70;98.80;;;;;;4180961;28;20053;-86
2023/06/15 00:38:25;;;;;;;3.80;2.60;;;16.70;98.90;;;;;;4181865;28;20408;-86
2023/06/15 00:40:25;;;;;;;5.40;2.92;;;16.70;99.00;;;;;;4164964;28;20085;-87
2023/06/15 00:42:30;;;;;;;8.02;2.97;;;16.60;99.20;;;;;;4181419;28;20056;-87
2023/06/15 00:44:31;;;;;;;4.93;2.03;;;16.60;99.30;;;;;;4182573;28;20041;-86
2023/06/15 00:46:33;;;;;;;4.80;2.78;;;16.60;99.40;;;;;;4171415;28;20049;-86
2023/06/15 00:48:34;;;;;;;6.45;2.50;;;16.60;99.50;;;;;;4199180;28;20044;-86
2023/06/15 00:50:36;;;;;;;8.10;2.28;;;16.60;99.60;;;;;;4181008;28;20099;-87
2023/06/15 00:52:38;;;;;;;7.18;2.33;;;16.60;99.70;;;;;;4199574;28;20544;-87
2023/06/15 00:54:40;;;;;;;5.80;2.10;;;16.50;99.80;;;;;;4197879;28;20496;-87
2023/06/15 00:56:41;;;;;;;7.75;2.30;;;16.50;99.90;;;;;;4198802;28;20052;-87
2023/06/15 00:58:42;;;;;;;4.35;2.53;;;16.50;99.90;;;;;;4198305;28;20080;-87
2023/06/15 01:00:48;;;;;;;3.20;1.98;;;16.40;99.90;;;;;;4197183;28;20072;-87
2023/06/15 01:02:50;;;;;;;3.95;2.45;;;16.40;99.90;;;;;;4199250;28;20079;-87
2023/06/15 01:04:51;;;;;;;5.05;2.60;;;16.40;99.90;;;;;;4180980;28;20045;-87
2023/06/15 01:07:01;;;;;;;4.43;2.40;;;16.40;99.90;;;;;;4200665;28;20077;-87
2023/06/15 01:09:04;;;;;;;4.40;2.03;;;16.30;99.90;;;;;;4199326;28;20036;-87
2023/06/15 01:11:05;;;;;;;5.70;2.35;;;16.30;99.90;;;;;;4198580;28;20040;-87
2023/06/15 01:13:10;;;;;;;5.25;2.58;;;16.30;99.90;;;;;;4198641;28;20602;-87
2023/06/15 01:15:12;;;;;;;6.75;2.40;;;16.20;99.90;;;;;;4198428;28;20080;-87
2023/06/15 01:17:15;;;;;;;6.88;2.15;;;16.30;99.90;;;;;;4198181;28;20056;-87
2023/06/15 01:19:39;;;;;;;4.85;2.58;;;16.20;99.90;;;;;;4198140;28;20052;-87
2023/06/15 01:21:40;;;;;;;4.35;2.45;;;16.20;99.90;;;;;;4200510;28;20489;-87
2023/06/15 01:23:50;;;;;;;5.60;2.67;;;16.10;99.90;;;;;;4215804;28;20097;-86
2023/06/15 01:26:05;;;;;;;4.18;2.28;;;16.10;99.90;;;;;;4181720;28;20072;-86
2023/06/15 01:28:09;;;;;;;7.88;2.78;;;16.10;99.90;;;;;;4215275;28;20051;-87
2023/06/15 01:30:12;;;;;;;6.68;2.58;;;16.10;99.90;;;;;;4216329;28;20436;-86
2023/06/15 01:32:12;;;;;;;9.43;2.50;;;16.10;99.90;;;;;;4197855;28;20044;-86
2023/06/15 01:34:13;;;;;;;6.97;2.28;;;16.00;99.90;;;;;;4215635;28;20488;-86
2023/06/15 01:36:15;;;;;;;6.57;2.67;;;16.00;99.90;;;;;;4199836;28;20028;-86
2023/06/15 01:38:24;;;;;;;3.70;2.38;;;16.00;99.90;;;;;;4216705;28;20044;-86
2023/06/15 01:40:25;;;;;;;6.40;2.40;;;16.00;99.90;;;;;;4183528;28;20121;-86
2023/06/15 01:42:28;;;;;;;5.18;2.65;;;15.90;99.90;;;;;;4199160;28;20037;-87
2023/06/15 01:44:30;;;;;;;6.65;3.00;;;15.90;99.90;;;;;;4215561;28;20499;-87
2023/06/15 01:46:31;;;;;;;6.20;2.95;;;15.90;99.90;;;;;;4198129;28;20048;-87
2023/06/15 01:48:34;;;;;;;6.53;3.00;;;15.90;99.90;;;;;;4181119;28;20150;-87
2023/06/15 01:50:36;;;;;;;3.75;2.47;;;15.80;99.90;;;;;;4200725;28;20036;-87
2023/06/15 01:52:38;;;;;;;4.78;2.67;;;15.80;99.90;;;;;;4216531;28;20040;-87
2023/06/15 01:54:41;;;;;;;6.60;2.60;;;15.70;99.90;;;;;;4217863;28;20040;-87
2023/06/15 01:56:42;;;;;;;7.35;2.97;;;15.80;99.90;;;;;;4216773;28;20564;-87
2023/06/15 01:58:43;;;;;;;5.75;2.67;;;15.70;99.90;;;;;;4198060;28;20069;-87
2023/06/15 02:00:46;;;;;;;8.55;2.80;;;15.70;99.90;;;;;;4215921;28;20040;-87
2023/06/15 02:02:46;;;;;;;11.82;3.13;;;15.70;99.90;;;;;;4196947;28;20134;-87
2023/06/15 02:04:47;;;;;;;7.60;2.50;;;15.60;99.90;;;;;;4198791;28;20037;-87
2023/06/15 02:06:51;;;;;;;8.43;3.03;;;15.60;99.90;;;;;;4198178;28;20076;-86
2023/06/15 02:08:53;;;;;;;6.63;2.72;;;15.50;99.90;;;;;;4217604;28;20835;-86
2023/06/15 02:10:53;;;;;;;5.00;2.55;;;15.50;99.90;;;;;;4198165;28;20056;-87
2023/06/15 02:12:54;;;;;;;6.45;2.35;;;15.50;99.90;;;;;;4181979;28;20048;-87
2023/06/15 02:14:57;;;;;;;3.95;2.47;;;15.40;99.90;;;;;;4198838;28;20048;-86
2023/06/15 02:16:59;;;;;;;4.93;2.50;;;15.30;99.90;;;;;;4215665;28;20040;-87
2023/06/15 02:19:03;;;;;;;4.45;2.67;;;15.50;99.90;;;;;;4197864;28;20032;-87
2023/06/15 02:21:04;;;;;;;4.80;2.75;;;15.40;99.90;;;;;;4196960;28;20050;-87
2023/06/15 02:23:05;;;;;;;6.38;2.40;;;15.40;99.90;;;;;;4200449;28;20048;-87
2023/06/15 02:25:08;;;;;;;4.13;2.63;;;15.40;99.90;;;;;;4219302;28;20059;-87
2023/06/15 02:27:08;;;;;;;5.47;2.50;;;15.40;99.90;;;;;;4219913;28;20480;-87
2023/06/15 02:29:11;;;;;;;8.00;2.45;;;15.30;99.90;;;;;;4202265;28;20048;-87
2023/06/15 02:31:11;;;;;;;4.60;2.88;;;15.30;99.90;;;;;;4200829;28;20120;-87
2023/06/15 02:33:12;;;;;;;4.45;2.75;;;15.30;99.90;;;;;;4202636;28;20142;-87
2023/06/15 02:35:13;;;;;;;6.88;2.92;;;15.20;99.90;;;;;;4200980;28;20056;-87
2023/06/15 02:37:14;;;;;;;5.68;2.45;;;15.20;99.90;;;;;;4211804;28;20040;-87
2023/06/15 02:39:15;;;;;;;5.30;2.70;;;15.20;99.90;;;;;;4184366;28;20085;-87
2023/06/15 02:41:15;;;;;;;3.88;2.65;;;15.30;99.90;;;;;;4184525;28;20071;-88
2023/06/15 02:43:17;;;;;;;7.60;2.33;;;15.20;99.90;;;;;;4184405;28;20416;-85
2023/06/15 02:45:18;;;;;;;7.47;2.78;;;15.20;99.90;;;;;;4185243;28;20044;-87
2023/06/15 02:47:19;;;;;;;7.72;3.08;;;15.20;99.90;;;;;;4185736;28;20080;-87
2023/06/15 02:49:21;;;;;;;5.93;2.78;;;15.10;99.90;;;;;;4202391;28;20041;-88
2023/06/15 02:51:21;;;;;;;5.05;2.45;;;15.10;99.90;;;;;;4185014;28;20049;-87
2023/06/15 02:53:25;;;;;;;8.30;2.95;;;15.10;99.90;;;;;;4200406;28;20041;-87
2023/06/15 02:55:26;;;;;;;7.05;2.95;;;15.10;99.90;;;;;;4183420;28;20084;-87
2023/06/15 02:57:29;;;;;;;5.97;2.80;;;15.00;99.90;;;;;;4183373;28;20482;-87
2023/06/15 02:59:30;;;;;;;6.35;3.00;;;15.00;99.90;;;;;;4183284;28;20049;-87
2023/06/15 03:01:38;;;;;;;8.82;3.85;;;15.00;99.90;;;;;;4201584;28;20044;-87
2023/06/15 03:03:40;;;;;;;5.80;2.85;;;15.00;99.90;;;;;;4200671;28;20079;-87
2023/06/15 03:05:41;;;;;;;4.18;2.60;;;14.90;99.90;;;;;;4183743;28;20127;-87
2023/06/15 03:07:43;;;;;;;9.10;3.38;;;14.90;99.90;;;;;;4201058;28;20048;-87
2023/06/15 03:09:46;;;;;;;8.10;3.28;;;14.80;99.90;;;;;;4166120;28;20048;-87
2023/06/15 03:11:46;;;;;;;5.88;2.92;;;14.80;99.90;;;;;;4200911;28;20045;-87
2023/06/15 03:13:47;;;;;;;4.68;2.38;;;14.80;99.90;;;;;;4183117;28;20087;-87
2023/06/15 03:15:49;;;;;;;7.68;3.20;;;14.80;99.90;;;;;;4184612;28;20060;-87
2023/06/15 03:17:51;;;;;;;14.43;3.67;;;14.70;99.90;;;;;;4184211;28;20052;-87
2023/06/15 03:19:52;;;;;;;4.97;3.13;;;14.70;99.90;;;;;;4203420;28;20541;-87
2023/06/15 03:21:53;;;;;;;5.50;3.10;;;14.70;99.90;;;;;;4202711;28;20049;-87
2023/06/15 03:23:54;;;;;;;5.82;2.83;;;14.70;99.90;;;;;;4183267;28;20082;-87
2023/06/15 03:25:56;;;;;;;5.20;2.70;;;14.70;99.90;;;;;;4182926;28;20136;-88
2023/06/15 03:28:00;;;;;;;6.40;3.15;;;14.70;99.90;;;;;;4201922;28;20062;-87
2023/06/15 03:30:01;;;;;;;5.68;3.10;;;14.70;99.90;;;;;;4201877;28;20088;-86
2023/06/15 03:32:05;;;;;;;7.53;3.53;;;14.70;99.90;;;;;;4182923;28;20068;-87
2023/06/15 03:34:10;;;;;;;10.75;3.40;;;14.70;99.90;;;;;;4184739;28;20041;-87
2023/06/15 03:36:14;;;;;;;8.18;3.50;;;14.70;99.90;;;;;;4201964;28;20087;-86
2023/06/15 03:38:20;;;;;;;6.45;2.67;;;14.70;99.90;;;;;;4184181;28;20055;-87
2023/06/15 03:40:22;;;;;;;3.67;2.65;;;14.70;99.90;;;;;;4184524;28;20049;-88
2023/06/15 03:42:22;;;;;;;8.75;3.20;;;14.60;99.90;;;;;;4183833;28;20110;-87
2023/06/15 03:44:23;;;;;;;5.57;2.95;;;14.60;99.90;;;;;;4202743;28;20040;-87
2023/06/15 03:46:26;;;;;;;9.27;3.63;;;14.70;99.90;;;;;;4177311;28;20053;-87
2023/06/15 03:48:27;;;;;;;6.75;3.45;;;14.60;99.90;;;;;;4200806;28;20424;-87
2023/06/15 03:50:28;;;;;;;11.48;4.70;;;14.70;99.90;;;;;;4218051;28;20123;-87
2023/06/15 03:52:32;;;;;;;7.63;3.30;;;14.70;99.90;;;;;;4218230;28;20460;-87
2023/06/15 03:54:39;;;;;;;5.55;3.10;;;14.70;99.90;;;;;;4217756;28;20101;-87
2023/06/15 03:56:41;;;;;;;5.85;3.35;;;14.70;99.90;;;;;;4200725;28;20036;-87
2023/06/15 03:58:42;;;;;;;7.13;3.42;;;14.70;99.90;;;;;;4218147;28;20040;-87
2023/06/15 04:00:43;;;;;;;5.90;3.22;;;14.70;99.90;;;;;;4182339;28;20111;-87
2023/06/15 04:02:44;;;;;;;11.35;3.70;;;14.70;99.90;;;;;;4199022;28;20054;-86
2023/06/15 04:04:45;;;;;;;5.15;3.78;;;14.70;99.90;;;;;;4199528;28;20040;-86
2023/06/15 04:06:47;;;;;;;8.80;3.75;;;14.70;99.90;;;;;;4182461;28;20161;-87
2023/06/15 04:08:48;;;;;;;8.38;3.20;;;14.60;99.90;;;;;;4199866;28;20458;-87
2023/06/15 04:10:50;;;;;;;8.10;3.33;;;14.60;99.90;;;;;;4200608;28;20083;-87
2023/06/15 04:12:51;;;;;;;8.02;3.90;;;14.70;99.90;;;;;;4183920;28;20045;-86
2023/06/15 04:14:52;;;;;;;9.00;3.83;;;14.30;99.90;;;;;;4218438;28;20032;-87
2023/06/15 04:16:53;;;;;;;8.43;3.53;;;14.70;99.90;;;;;;4200567;28;20127;-87
2023/06/15 04:18:53;;;;;;;6.82;3.28;;;14.70;99.90;;;;;;4184275;28;20053;-88
2023/06/15 04:20:55;;;;;;;7.90;3.50;;;14.70;99.90;;;;;;4218414;28;20488;-87
2023/06/15 04:22:59;;;;;;;6.32;3.53;;;14.80;99.90;;;;;;4218284;28;20059;-87
2023/06/15 04:25:03;;;;;;;7.82;3.75;;;14.80;99.90;;;;;;4217868;28;20040;-87
2023/06/15 04:27:12;;;;;;;6.07;3.72;;;14.90;99.90;;;;;;4199540;28;20052;-87
2023/06/15 04:29:18;;;;;;;8.07;3.95;;;14.90;99.90;;;;;;4198718;28;20361;-87
2023/06/15 04:31:21;;;;;;;6.18;3.38;;;14.90;99.90;;;;;;4180674;28;20106;-87
2023/06/15 04:33:22;;;;;;;5.70;3.58;;;14.90;99.90;;;;;;4181728;28;20560;-87
2023/06/15 04:35:24;;;;;;;7.05;3.55;;;14.90;99.90;;;;;;4198149;28;20097;-87
2023/06/15 04:37:28;;;;;;;6.53;3.78;;;14.90;99.90;;;;;;4198347;28;20051;-87
2023/06/15 04:39:29;;;;;;;8.13;3.60;;;14.90;99.90;;;;;;4182070;28;20052;-87
2023/06/15 04:41:31;;;;;;;6.85;3.88;;;14.90;99.90;;;;;;4181540;28;20397;-87
2023/06/15 04:43:38;;;;;;;5.80;3.90;;;14.90;99.90;;;;;;4182001;28;20056;-87
2023/06/15 04:45:38;;;;;;;7.25;3.72;;;15.00;99.90;;;;;;4198507;28;20041;-84
2023/06/15 04:47:41;;;;;;;8.02;3.95;;;15.00;99.90;;;;;;4199624;28;20043;-83
2023/06/15 04:49:44;;;;;;;5.68;3.97;;;15.10;99.90;;;;;;4212590;28;20047;-84
2023/06/15 04:51:44;;;;;;;8.25;3.65;;;15.10;99.90;;;;;;4198587;28;20087;-84
2023/06/15 04:53:45;;;;;;;14.73;4.70;;;15.10;99.90;;;;;;4216521;28;20036;-85
2023/06/15 04:55:48;;;;;;;6.80;3.38;;;15.20;99.90;;;;;;4215588;28;20449;-85
2023/06/15 04:57:49;;;;;;;8.25;4.18;;;15.20;99.90;;;;;;4180586;28;20079;-85
2023/06/15 04:59:51;;;;;;;7.85;3.28;;;15.30;99.90;;;;;;4197949;28;20048;-85
2023/06/15 05:01:52;;;;;;;8.13;3.45;;;15.30;99.90;;;;;;4166317;28;20053;-84
2023/06/15 05:03:54;;;;;;;9.10;4.18;;;15.40;99.90;;;;;;4207576;28;20174;-84
2023/06/15 05:05:55;;;;;;;6.90;3.63;;;15.40;99.90;;;;;;4198122;28;20056;-85
2023/06/15 05:07:56;;;;;;;7.25;4.22;;;15.50;99.90;;;;;;4215705;28;20108;-84
2023/06/15 05:09:57;;;;;;;7.55;4.07;;;15.60;99.90;;;;;;4214513;28;20119;-84
2023/06/15 05:11:57;;;;;;;7.05;3.92;;;15.60;99.90;;;;;;4197171;28;20055;-84
2023/06/15 05:13:59;;;;;;;11.98;3.47;;;15.70;99.90;;;;;;4214430;28;20048;-85
2023/06/15 05:16:00;;;;;;;5.13;3.58;;;15.80;99.90;;;;;;4196187;28;20080;-84
2023/06/15 05:18:01;;;;;;;6.13;3.45;;;15.90;99.90;;;;;;4180777;28;20107;-84
2023/06/15 05:20:02;;;;;;;8.40;3.55;;;16.00;99.90;;;;;;4180569;28;20132;-85
2023/06/15 05:22:03;;;;;;;6.07;3.42;;;16.00;99.90;;;;;;4199865;28;20056;-85
2023/06/15 05:24:04;;;;;;;7.32;4.43;;;16.60;99.90;;;;;;4198169;28;20513;-85
2023/06/15 05:26:07;;;;;;;9.45;3.78;;;16.20;99.90;;;;;;4209997;28;20136;-84
2023/06/15 05:28:08;;;;;;;6.35;3.63;;;16.30;99.90;;;;;;4197206;28;20063;-84
2023/06/15 05:30:11;;;;;;;9.82;3.38;;;16.40;99.90;;;;;;4216469;28;20040;-85
2023/06/15 05:32:12;;;;;;;7.93;3.33;;;16.50;99.90;;;;;;4216222;28;20114;-84
2023/06/15 05:34:13;;;;;;;9.23;3.47;;;16.60;99.90;;;;;;4215584;28;20048;-84
2023/06/15 05:36:13;;;;;;;5.72;3.42;;;16.70;99.90;;;;;;4198938;28;20488;-85
2023/06/15 05:38:15;;;;;;;9.88;3.60;;;16.80;99.90;;;;;;4216706;28;20834;-84
2023/06/15 05:40:17;;;;;;;9.40;3.75;;;16.80;99.90;;;;;;4217883;28;20065;-84
2023/06/15 05:42:19;;;;;;;11.30;4.20;;;16.90;99.90;;;;;;4216534;28;20451;-83
2023/06/15 05:44:21;;;;;;;6.60;3.97;;;17.00;99.90;;;;;;4217299;28;20080;-84
2023/06/15 05:46:25;;;;;;;6.10;3.35;;;17.10;99.90;;;;;;4216832;28;20036;-84
2023/06/15 05:48:26;;;;;;;6.80;3.88;;;17.20;99.90;;;;;;4197145;28;20048;-84
2023/06/15 05:50:28;;;;;;;6.82;3.58;;;17.30;99.90;;;;;;4215795;28;20047;-84
2023/06/15 05:52:28;;;;;;;7.28;3.63;;;17.40;99.90;;;;;;4214047;28;20052;-84
2023/06/15 05:54:29;;;;;;;7.18;3.75;;;17.40;99.90;;;;;;4215615;28;20047;-84
2023/06/15 05:56:30;;;;;;;5.82;2.72;;;17.50;99.90;;;;;;4197391;28;20079;-85
2023/06/15 05:58:32;;;;;;;6.78;3.42;;;17.60;99.90;;;;;;4185032;28;20053;-84
2023/06/15 06:00:34;;;;;;;11.55;4.35;;;17.70;99.90;;;;;;4219647;28;20545;-85
2023/06/15 06:02:34;;;;;;;4.65;3.15;;;17.80;99.90;;;;;;4220170;28;20493;-83
2023/06/15 06:04:35;;;;;;;7.38;3.60;;;17.90;99.90;;;;;;4202048;28;20044;-84
2023/06/15 06:06:36;;;;;;;6.45;2.97;;;17.90;99.90;;;;;;4219777;28;20083;-85
2023/06/15 06:08:37;;;;;;;7.55;3.67;;;18.00;99.90;;;;;;4202465;28;20045;-85
2023/06/15 06:10:39;;;;;;;8.65;2.65;;;18.10;99.90;;;;;;4201135;28;20432;-84
2023/06/15 06:12:40;;;;;;;8.82;3.25;;;18.20;99.90;;;;;;4218417;28;20044;-84
2023/06/15 06:14:41;;;;;;;11.68;3.10;;;18.30;99.90;;;;;;4218986;28;20123;-85
2023/06/15 06:16:42;;;;;;;11.50;3.05;;;18.40;99.90;;;;;;4200722;28;20047;-84
2023/06/15 06:18:43;;;;;;;12.60;4.00;;;18.50;99.90;;;;;;4218633;28;20411;-85
2023/06/15 06:20:44;;;;;;;5.28;2.90;;;18.60;99.90;;;;;;4200052;28;20044;-84
2023/06/15 06:22:45;;;;;;;5.57;2.65;;;18.40;99.90;;;;;;4183370;28;20136;-84
2023/06/15 06:24:45;;;;;;;7.97;2.65;;;18.80;99.90;;;;;;4217479;28;20480;-85
2023/06/15 06:26:46;;;;;;;4.88;2.65;;;18.80;99.90;;;;;;4218687;28;20511;-86
2023/06/15 06:28:48;;;;;;;6.43;2.13;;;18.90;99.90;;;;;;4217525;28;20040;-85
2023/06/15 06:30:49;;;;;;;6.50;2.45;;;19.10;99.90;;;;;;4218061;28;20043;-85
2023/06/15 06:32:50;;;;;;;4.15;1.90;;;19.10;99.90;;;;;;4217746;28;20040;-85
2023/06/15 06:34:50;;;;;;;3.03;1.80;;;19.20;99.90;;;;;;4217670;28;20055;-84
2023/06/15 06:36:51;;;;;;;6.93;2.63;;;19.30;99.90;;;;;;4217397;28;20269;-83
2023/06/15 06:38:52;;;;;;;6.30;2.03;;;19.40;99.90;;;;;;4217428;28;20066;-85
2023/06/15 06:40:53;;;;;;;5.20;1.80;;;19.50;99.90;;;;;;4218602;28;20140;-85
2023/06/15 06:42:54;;;;;;;4.55;1.70;;;19.60;99.90;;;;;;4217450;28;20075;-85
2023/06/15 06:44:55;;;;;;;4.32;1.70;;;19.60;99.90;;;;;;4202298;28;20063;-85
2023/06/15 06:46:56;;;;;;;5.43;1.73;;;19.70;99.90;;;;;;4218218;28;20048;-85
2023/06/15 06:48:57;;;;;;;3.88;2.10;;;19.90;99.90;;;;;;4218313;28;20467;-85
2023/06/15 06:50:58;;;;;;;4.93;1.70;;;20.00;99.90;;;;;;4218251;28;20044;-85
2023/06/15 06:52:58;;;;;;;7.38;1.90;;;20.10;99.90;;;;;;4217549;28;20115;-85
2023/06/15 06:54:59;;;;;;;7.38;1.70;;;20.20;99.50;;;;;;4217927;28;20185;-84
2023/06/15 06:57:03;;;;;;;4.78;1.40;;;20.30;99.20;;;;;;4200299;28;20055;-85
2023/06/15 06:59:04;;;;;;;4.05;1.67;;;20.30;98.60;;;;;;4185919;28;20044;-85
2023/06/15 07:01:05;;;;;;;7.38;2.15;;;20.40;98.20;;;;;;4218991;28;20043;-85
2023/06/15 07:03:06;;;;;;;3.80;1.83;;;20.60;98.10;;;;;;4220194;28;20551;-85
2023/06/15 07:05:07;;;;;;;2.47;1.65;;;20.60;97.60;;;;;;4218511;28;20160;-85
2023/06/15 07:07:07;;;;;;;3.58;1.75;;;20.70;97.30;;;;;;4219512;28;20024;-85
2023/06/15 07:09:12;;;;;;;5.60;1.60;;;20.80;97.00;;;;;;4218653;28;20036;-84
2023/06/15 07:11:14;;;;;;;2.97;1.77;;;20.90;96.70;;;;;;4218418;28;20040;-84
2023/06/15 07:13:15;;;;;;;4.32;2.00;;;20.90;96.60;;;;;;4219299;28;20495;-84
2023/06/15 07:15:17;;;;;;;5.95;2.20;;;21.10;96.60;;;;;;4219255;28;20043;-84
2023/06/15 07:17:20;;;;;;;6.18;1.70;;;21.10;96.20;;;;;;4219556;28;20396;-84
2023/06/15 07:19:20;;;;;;;5.13;2.05;;;21.20;95.70;;;;;;4219049;28;20087;-85
2023/06/15 07:21:21;;;;;;;3.60;2.05;;;21.10;95.30;;;;;;4201444;28;20049;-85
2023/06/15 07:23:23;;;;;;;5.68;2.05;;;21.20;95.50;;;;;;4218959;28;20048;-84
2023/06/15 07:25:23;;;;;;;7.38;1.92;;;21.30;95.50;;;;;;4219441;28;20505;-84
2023/06/15 07:27:24;;;;;;;5.90;2.10;;;21.40;95.40;;;;;;4219042;28;20059;-84
2023/06/15 07:29:25;;;;;;;3.70;2.40;;;21.60;95.40;;;;;;4219092;28;20047;-85
2023/06/15 07:31:26;;;;;;;4.03;2.17;;;21.60;95.00;;;;;;4219216;28;20063;-85
2023/06/15 07:33:27;;;;;;;8.15;1.90;;;21.70;94.80;;;;;;4218418;28;20451;-84
2023/06/15 07:35:28;;;;;;;6.40;1.73;;;21.70;94.90;;;;;;4219422;28;20043;-84
2023/06/15 07:37:29;;;;;;;10.30;1.70;;;21.80;94.70;;;;;;4219419;28;20044;-84
2023/06/15 07:39:29;;;;;;;9.60;2.10;;;22.00;94.40;;;;;;4219093;28;20048;-84
2023/06/15 07:41:30;;;;;;;4.25;2.03;;;22.20;94.30;;;;;;4218865;28;20052;-84
2023/06/15 07:43:31;;;;;;;3.03;1.98;;;22.30;94.00;;;;;;4218876;28;20096;-85
2023/06/15 07:45:32;;;;;;;6.43;2.30;;;22.40;93.40;;;;;;4219357;28;20133;-84
2023/06/15 07:47:32;;;;;;;2.72;2.05;;;22.50;93.00;;;;;;4219371;28;20495;-84
2023/06/15 07:49:34;;;;;;;5.45;2.13;;;22.70;93.00;;;;;;4218901;28;20046;-86
2023/06/15 07:51:35;;;;;;;18.58;2.40;;;22.70;92.60;;;;;;4218267;28;20109;-85
2023/06/15 07:53:38;;;;;;;3.95;1.42;;;22.90;92.20;;;;;;4219146;28;20040;-84
2023/06/15 07:55:39;;;;;;;4.82;2.33;;;22.90;91.90;;;;;;4218400;28;20111;-84
2023/06/15 07:57:40;;;;;;;2.47;1.92;;;23.10;91.70;;;;;;4218676;28;20040;-85
2023/06/15 07:59:41;;;;;;;3.05;1.95;;;23.20;91.20;;;;;;4218485;28;20040;-84
2023/06/15 08:01:41;;;;;;;3.17;1.63;;;23.30;90.80;;;;;;4218560;28;20036;-85
2023/06/15 08:03:42;;;;;;;5.13;1.77;;;23.40;90.60;;;;;;4218599;28;20079;-85
2023/06/15 08:05:43;;;;;;;4.25;1.98;;;23.60;90.40;;;;;;4218381;28;20040;-85
2023/06/15 08:07:44;;;;;;;7.10;2.13;;;23.70;90.20;;;;;;4217527;28;20044;-84
2023/06/15 08:09:44;;;;;;;2.47;2.00;;;23.80;90.00;;;;;;4216337;28;20579;-84
2023/06/15 08:11:47;;;;;;;3.63;1.73;;;;;;;;;;4217052;28;20052;-85
2023/06/15 08:13:48;;;;;;;5.13;1.92;;;;;;;;;;4217362;28;20043;-85
2023/06/15 08:15:49;;;;;;;3.60;1.90;;;23.90;88.90;;;;;;4217747;28;20051;-84
2023/06/15 08:17:51;;;;;;;4.82;1.67;;;24.30;86.20;;;;;;4218295;28;20041;-84
2023/06/15 08:19:53;;;;;;;3.05;1.75;;;24.30;85.30;;;;;;4199896;28;20540;-84
2023/06/15 08:21:54;;;;;;;7.05;1.90;;;;;;;;;;4217520;28;20054;-84
2023/06/15 08:23:55;;;;;;;4.43;1.95;;;;;;;;;;4218348;28;20483;-85
2023/06/15 08:25:57;;;;;;;5.45;1.92;;;;;;;;;;4218559;28;20067;-84
2023/06/15 08:27:58;;;;;;;19.48;3.00;;;;;;;;;;4200463;28;20132;-85
2023/06/15 08:30:00;;;;;;;4.13;1.80;;;;;;;;;;4217871;28;20114;-84
2023/06/15 08:32:01;;;;;;;3.50;1.60;;;24.50;85.10;;;;;;4217735;28;20037;-84
2023/06/15 08:34:02;;;;;;;5.35;1.55;;;25.30;82.00;;;;;;4218409;28;20028;-84
2023/06/15 08:36:03;;;;;;;4.32;1.70;;;25.40;81.10;;;;;;4217835;28;20116;-83
2023/06/15 08:38:04;;;;;;;2.88;1.60;;;25.40;79.10;;;;;;4218933;28;20032;-85
2023/06/15 08:40:07;;;;;;;2.45;1.45;;;25.40;78.20;;;;;;4217882;28;20048;-84
2023/06/15 08:42:08;;;;;;;2.90;1.38;;;25.50;77.10;;;;;;4217962;28;20055;-86
2023/06/15 08:44:10;;;;;;;2.75;1.40;;;25.60;76.90;;;;;;4217099;28;20036;-85
2023/06/15 08:46:12;;;;;;;3.75;1.80;;;25.70;76.60;;;;;;4217539;28;20571;-85
2023/06/15 08:48:15;;;;;;;2.92;1.67;;;25.80;76.20;;;;;;4217201;28;20492;-85
2023/06/15 08:50:16;;;;;;;3.97;1.75;;;26.00;75.30;;;;;;4198934;28;20048;-85
2023/06/15 08:52:20;;;;;;;7.28;2.00;;;26.20;74.50;;;;;;4217089;28;20040;-85
2023/06/15 08:54:23;;;;;;;5.40;2.05;;;26.20;73.30;;;;;;4216984;28;20399;-86
2023/06/15 08:56:26;;;;;;;2.78;1.42;;;26.30;72.60;;;;;;4217398;28;20036;-84
2023/06/15 08:58:27;;;;;;;4.30;1.63;;;26.40;71.60;;;;;;4215950;28;20048;-84
2023/06/15 09:00:28;;;;;;;2.78;1.73;;;26.40;70.30;;;;;;4215991;28;20112;-84
2023/06/15 09:02:32;;;;;;;4.22;1.42;;;26.50;70.80;;;;;;4215551;28;20434;-84
2023/06/15 09:04:32;;;;;;;8.55;1.92;;;26.70;70.10;;;;;;4214904;28;20044;-84
2023/06/15 09:06:33;;;;;;;5.10;1.50;;;26.90;70.00;;;;;;4199431;28;20091;-84
2023/06/15 09:08:35;;;;;;;2.28;1.30;;;27.10;69.70;;;;;;4216762;28;20040;-85
2023/06/15 09:10:37;;;;;;;5.05;1.58;;;27.20;68.70;;;;;;4217983;28;20044;-84
2023/06/15 09:12:56;;;;;;;4.90;1.80;;;27.40;68.10;;;;;;4198996;28;20511;-84
2023/06/15 09:14:57;;;;;;;5.78;1.83;;;27.40;64.60;;;;;;4198551;28;20048;-85
2023/06/15 09:16:59;;;;;;;6.97;1.50;;;27.50;66.40;;;;;;4217572;28;20040;-84
2023/06/15 09:19:00;;;;;;;5.10;1.80;;;27.60;66.30;;;;;;4198185;28;20044;-84
2023/06/15 09:21:01;;;;;;;2.95;1.90;;;27.70;65.30;;;;;;4216970;28;20044;-84
2023/06/15 09:23:04;;;;;;;5.57;2.10;;;28.10;64.50;;;;;;4215516;28;20595;-84
2023/06/15 09:25:30;;;;;;;4.70;1.67;;;28.40;64.30;;;;;;4215704;28;20043;-84
2023/06/15 09:27:32;;;;;;;9.27;2.00;;;28.40;63.30;;;;;;4196426;28;20040;-84
2023/06/15 09:29:33;;;;;;;8.23;2.13;;;28.50;63.20;;;;;;4212251;28;20123;-85
2023/06/15 09:31:36;;;;;;;4.10;1.92;;;28.50;62.20;;;;;;4215947;28;20043;-84
2023/06/15 09:33:36;;;;;;;4.25;1.80;;;28.60;63.10;;;;;;4220106;28;20047;-84
2023/06/15 09:35:37;;;;;;;8.40;1.90;;;28.60;61.50;;;;;;4218902;28;20488;-84
2023/06/15 09:37:38;;;;;;;2.67;1.40;;;28.90;60.70;;;;;;4219696;28;20400;-84
2023/06/15 09:39:45;;;;;;;5.10;2.35;;;29.10;60.00;;;;;;4219660;28;20047;-83
2023/06/15 09:41:52;;;;;;;2.88;1.70;;;29.20;58.60;;;;;;4202121;28;20576;-85
2023/06/15 09:43:55;;;;;;;1.65;1.30;;;29.00;56.80;;;;;;4220811;28;20058;-85
2023/06/15 09:45:56;;;;;;;4.57;1.83;;;29.10;57.10;;;;;;4219730;28;20040;-85
2023/06/15 09:47:58;;;;;;;5.75;1.83;;;29.30;56.90;;;;;;4221340;28;20467;-84
2023/06/15 09:50:07;;;;;;;3.33;1.60;;;29.20;55.50;;;;;;4220122;28;20130;-84
2023/06/15 09:52:12;;;;;;;4.35;2.28;;;29.20;54.80;;;;;;4221250;28;20040;-85
2023/06/15 09:54:14;;;;;;;6.72;1.80;;;29.20;56.50;;;;;;4220833;28;20040;-84
2023/06/15 09:56:18;;;;;;;2.38;1.50;;;29.40;56.60;;;;;;4219155;28;20052;-85
2023/06/15 09:58:21;;;;;;;4.28;1.70;;;29.50;56.00;;;;;;4220216;28;20050;-84
2023/06/15 10:00:22;;;;;;;3.63;2.15;;;29.80;55.00;;;;;;4218181;28;20487;-84
2023/06/15 10:02:25;;;;;;;7.50;1.70;;;29.90;53.50;;;;;;4219401;28;20043;-84
2023/06/15 10:04:36;;;;;;;8.68;1.70;;;30.00;52.50;;;;;;4218464;28;20044;-84
2023/06/15 10:06:40;;;;;;;5.53;1.30;;;30.10;51.40;;;;;;4200250;28;20052;-84
2023/06/15 10:08:41;;;;;;;2.75;1.38;;;30.00;50.60;;;;;;4218674;28;20113;-84
2023/06/15 10:10:44;;;;;;;5.90;1.60;;;30.20;50.90;;;;;;4217501;28;20056;-84
2023/06/15 10:12:49;;;;;;;4.40;1.60;;;30.30;49.40;;;;;;4218524;28;20052;-84
2023/06/15 10:15:03;;;;;;;5.40;1.55;;;30.20;49.50;;;;;;4218474;28;20093;-84
2023/06/15 10:17:08;;;;;;;5.88;1.60;;;30.20;48.90;;;;;;4200236;28;20080;-84
2023/06/15 10:19:12;;;;;;;3.05;1.63;;;30.50;49.90;;;;;;4218912;28;20040;-84
2023/06/15 10:21:18;;;;;;;4.85;1.40;;;30.70;49.60;;;;;;4218391;28;20044;-84
2023/06/15 10:23:25;;;;;;;6.15;1.80;;;30.90;50.00;;;;;;4216651;28;20196;-84
2023/06/15 10:25:27;;;;;;;2.40;1.80;;;31.20;49.40;;;;;;4219363;28;20059;-84
2023/06/15 10:27:29;;;;;;;2.55;1.60;;;31.30;49.10;;;;;;4218116;28;20075;-84
2023/06/15 10:29:51;;;;;;;6.30;1.80;;;31.20;48.70;;;;;;4219832;28;20059;-84
2023/06/15 10:32:12;;;;;;;4.28;1.50;;;31.30;48.50;;;;;;4219746;28;20068;-84
2023/06/15 10:34:26;;;;;;;4.38;1.50;;;31.50;48.10;;;;;;4219526;28;20177;-84
2023/06/15 10:36:32;;;;;;;3.70;1.50;;;31.80;46.30;;;;;;4200101;28;20041;-84
2023/06/15 10:38:55;;;;;;;4.63;1.40;;;32.00;46.20;;;;;;4219817;28;20040;-84